Time;durP1;ratioP1;P1;durP2;ratioP2;P2;SDS_P1;SDS_P2;PMS_P1;PMS_P2;Temp;Humidity;BMP_temperature;BMP_pressure;BME280_temperature;BME280_humidity;BME280_pressure;Samples;Min_cycle;Max_cycle;Signal;HPM_P1;HPM_P2
2023/06/23 00:00:25;;;;;;;17.00;14.50;;;;;;;21.02;67.62;99408.59;107679;1256;72668;-38
2023/06/23 00:02:53;;;;;;;15.70;13.90;;;;;;;21.01;67.92;99409.24;107677;1256;61753;-38
2023/06/23 00:05:21;;;;;;;16.20;13.80;;;;;;;21.03;67.87;99404.86;107690;1251;60030;-38
2023/06/23 00:07:48;;;;;;;16.70;15.00;;;;;;;21.04;67.98;99404.14;107552;1254;73046;-38
2023/06/23 00:10:16;;;;;;;19.00;15.10;;;;;;;21.02;67.94;99400.31;107606;1257;66606;-38
2023/06/23 00:12:43;;;;;;;19.50;16.60;;;;;;;21.00;67.86;99401.23;107669;1257;72839;-38
2023/06/23 00:15:12;;;;;;;18.90;15.90;;;;;;;20.98;67.86;99397.88;107520;1252;60083;-38
2023/06/23 00:17:41;;;;;;;20.80;15.10;;;;;;;20.96;67.91;99394.31;107670;1255;60024;-38
2023/06/23 00:20:15;;;;;;;17.90;14.90;;;;;;;20.96;68.08;99392.73;107525;1253;71773;-38
2023/06/23 00:22:43;;;;;;;19.40;14.80;;;;;;;21.00;68.22;99393.04;107695;1254;67876;-38
2023/06/23 00:25:12;;;;;;;15.80;14.20;;;;;;;20.99;68.20;99393.69;107694;1256;72660;-38
2023/06/23 00:27:41;;;;;;;16.50;14.70;;;;;;;20.97;68.18;99393.33;107710;1252;60059;-38
2023/06/23 00:30:11;;;;;;;;;;;;;;;20.96;68.11;99392.80;107620;1256;59508;-38
2023/06/23 00:32:40;;;;;;;16.20;14.50;;;;;;;20.89;68.38;99398.98;107533;1258;71823;-38
2023/06/23 00:35:13;;;;;;;19.80;14.40;;;;;;;20.79;68.54;99395.55;107517;1256;67590;-38
2023/06/23 00:37:43;;;;;;;16.90;13.50;;;;;;;20.83;68.55;99398.47;107636;1254;71400;-38
2023/06/23 00:40:10;;;;;;;16.20;14.50;;;;;;;20.86;68.13;99396.89;107687;1254;59582;-38
2023/06/23 00:42:45;;;;;;;16.60;14.90;;;;;;;20.86;68.03;99399.44;107608;1256;59403;-38
2023/06/23 00:45:13;;;;;;;17.80;14.60;;;;;;;20.83;68.02;99397.82;107513;1251;73058;-38
2023/06/23 00:47:42;;;;;;;16.90;14.70;;;;;;;20.80;68.17;99387.59;107653;1254;67625;-38
2023/06/23 00:50:15;;;;;;;16.70;15.00;;;;;;;20.75;68.15;99388.89;107645;1254;72708;-38
2023/06/23 00:52:50;;;;;;;16.70;14.60;;;;;;;20.69;68.22;99384.51;107622;1256;61778;-38
2023/06/23 00:55:22;;;;;;;17.30;14.90;;;;;;;20.69;68.41;99379.02;107644;1254;59484;-38
2023/06/23 00:57:51;;;;;;;16.20;14.50;;;;;;;20.72;68.57;99380.28;107547;1254;71811;-38
2023/06/23 01:00:19;;;;;;;20.80;14.90;;;;;;;20.73;68.90;99386.41;107496;1252;67599;-38
2023/06/23 01:02:51;;;;;;;16.70;15.00;;;;;;;20.74;68.84;99389.75;107503;1254;72748;-38
2023/06/23 01:05:21;;;;;;;;;;;;;;;20.73;68.80;99389.15;107770;1251;60106;-38
2023/06/23 01:08:08;;;;;;;16.30;14.60;;;;;;;20.65;68.65;99385.09;107670;1254;59538;-38
2023/06/23 01:10:51;;;;;;;18.10;13.70;;;;;;;20.58;68.79;99383.98;107699;1251;73087;-37
2023/06/23 01:13:34;;;;;;;17.00;14.40;;;;;;;20.60;68.81;99382.05;107704;1256;67560;-37
2023/06/23 01:16:06;;;;;;;18.30;14.70;;;;;;;20.63;68.89;99383.48;107694;1255;73237;-38
2023/06/23 01:18:40;;;;;;;17.20;15.40;;;;;;;20.63;69.26;99384.82;107703;1254;59408;-38
2023/06/23 01:21:09;;;;;;;17.80;15.70;;;;;;;20.63;69.59;99387.41;107686;1254;59624;-38
2023/06/23 01:23:45;;;;;;;17.60;15.90;;;;;;;20.62;69.62;99391.36;107701;1254;72813;-38
2023/06/23 01:26:33;;;;;;;16.90;14.70;;;;;;;20.61;69.74;99391.47;107666;1251;67606;-38
2023/06/23 01:29:10;;;;;;;17.40;14.60;;;;;;;20.66;69.73;99390.80;107682;1253;71383;-38
2023/06/23 01:32:05;;;;;;;17.80;15.00;;;;;;;20.71;69.97;99395.09;107492;1254;60079;-38
2023/06/23 01:34:42;;;;;;;20.10;16.00;;;;;;;20.76;69.64;99400.19;107723;1251;60038;-38
2023/06/23 01:37:18;;;;;;;18.30;16.40;;;;;;;20.75;69.46;99405.01;107533;1254;72256;-38
2023/06/23 01:39:52;;;;;;;18.90;16.50;;;;;;;20.75;69.06;99399.74;107554;1258;67576;-38
2023/06/23 01:42:25;;;;;;;18.60;16.70;;;;;;;20.72;69.03;99390.05;107687;1251;72732;-38
2023/06/23 01:44:57;;;;;;;17.10;15.20;;;;;;;20.68;69.13;99391.15;107660;1251;60547;-38
2023/06/23 01:47:27;;;;;;;16.90;14.90;;;;;;;20.72;69.40;99390.69;107611;1251;60145;-38
2023/06/23 01:49:58;;;;;;;19.20;15.50;;;;;;;20.76;69.26;99392.46;107572;1256;73076;-38
2023/06/23 01:52:25;;;;;;;17.60;15.10;;;;;;;20.77;69.13;99395.67;107635;1255;67559;-38
2023/06/23 01:54:54;;;;;;;19.00;16.10;;;;;;;20.76;69.18;99396.71;107224;1260;70513;-38
2023/06/23 01:57:22;;;;;;;17.70;16.00;;;;;;;20.77;69.03;99397.90;107486;1254;60090;-38
2023/06/23 01:59:50;;;;;;;20.40;16.80;;;;;;;20.74;69.04;99402.67;107643;1254;60005;-38
2023/06/23 02:02:18;;;;;;;16.80;15.00;;;;;;;20.70;69.24;99399.23;107450;1251;73088;-38
2023/06/23 02:04:48;;;;;;;16.30;14.60;;;;;;;20.70;69.15;99402.53;107473;1254;66272;-38
2023/06/23 02:07:18;;;;;;;18.30;15.50;;;;;;;20.71;69.40;99403.13;107678;1257;71429;-38
2023/06/23 02:09:46;;;;;;;18.80;15.80;;;;;;;20.71;69.26;99406.92;107665;1253;60250;-38
2023/06/23 02:12:13;;;;;;;17.10;15.40;;;;;;;20.71;69.61;99410.23;107520;1254;59379;-38
2023/06/23 02:14:41;;;;;;;17.10;15.40;;;;;;;20.71;69.76;99412.75;107457;1251;71865;-38
2023/06/23 02:17:10;;;;;;;18.60;15.40;;;;;;;20.68;69.66;99409.97;107519;1257;67722;-38
2023/06/23 02:19:39;;;;;;;17.30;15.50;;;;;;;20.66;69.76;99406.80;107663;1252;72522;-38
2023/06/23 02:22:16;;;;;;;17.40;15.60;;;;;;;20.69;69.77;99405.85;107516;1256;60082;-38
2023/06/23 02:24:43;;;;;;;18.00;16.00;;;;;;;20.69;69.70;99407.65;107667;1254;59632;-38
2023/06/23 02:27:11;;;;;;;18.00;16.20;;;;;;;20.65;69.62;99403.89;107648;1257;73484;-38
2023/06/23 02:29:40;;;;;;;17.90;16.00;;;;;;;20.62;69.95;99403.57;107511;1254;66351;-38
2023/06/23 02:32:08;;;;;;;16.60;14.90;;;;;;;20.62;70.16;99403.80;107661;1254;72657;-38
2023/06/23 02:34:38;;;;;;;17.80;15.90;;;;;;;20.64;70.16;99404.17;107655;1253;60372;-38
2023/06/23 02:37:08;;;;;;;17.90;16.10;;;;;;;20.69;70.01;99405.32;107685;1251;59529;-38
2023/06/23 02:39:39;;;;;;;18.40;16.50;;;;;;;20.70;70.04;99402.38;107492;1254;73099;-38
2023/06/23 02:42:07;;;;;;;18.20;16.00;;;;;;;20.70;70.11;99409.23;107529;1260;67571;-38
2023/06/23 02:44:39;;;;;;;18.30;16.40;;;;;;;20.71;70.05;99407.08;107479;1254;71408;-38
2023/06/23 02:47:11;;;;;;;18.20;15.90;;;;;;;20.71;69.92;99407.06;107666;1254;61699;-38
2023/06/23 02:49:39;;;;;;;17.40;14.80;;;;;;;20.73;69.80;99401.98;107475;1253;60393;-38
2023/06/23 02:52:07;;;;;;;17.50;15.70;;;;;;;20.73;69.84;99399.55;107496;1255;71845;-38
2023/06/23 02:54:37;;;;;;;17.60;15.70;;;;;;;20.76;70.09;99394.52;107345;1251;67586;-38
2023/06/23 02:57:05;;;;;;;18.20;16.20;;;;;;;20.81;70.19;99388.98;107535;1254;71057;-38
2023/06/23 02:59:33;;;;;;;18.40;16.60;;;;;;;20.83;70.11;99388.23;107493;1251;60212;-38
2023/06/23 03:02:01;;;;;;;24.00;16.70;;;;;;;20.80;70.42;99385.61;107651;1253;59589;-38
2023/06/23 03:04:30;;;;;;;17.60;15.50;;;;;;;20.80;70.23;99383.19;107531;1251;72060;-38
2023/06/23 03:06:58;;;;;;;18.10;16.20;;;;;;;20.84;70.20;99384.44;107429;1254;67899;-38
2023/06/23 03:09:26;;;;;;;19.30;17.40;;;;;;;20.84;70.30;99387.25;107720;1254;72706;-38
2023/06/23 03:11:54;;;;;;;19.00;17.00;;;;;;;20.83;70.12;99386.33;107501;1253;60552;-38
2023/06/23 03:14:21;;;;;;;19.30;17.30;;;;;;;20.82;70.64;99390.85;107702;1254;60389;-37
2023/06/23 03:16:54;;;;;;;17.50;15.60;;;;;;;20.81;70.67;99390.31;107506;1254;73064;-38
2023/06/23 03:19:29;;;;;;;19.60;17.50;;;;;;;20.86;70.95;99390.52;107748;1252;66790;-38
2023/06/23 03:22:07;;;;;;;19.00;17.00;;;;;;;20.92;70.94;99381.18;107668;1253;71057;-38
2023/06/23 03:24:38;;;;;;;21.70;17.60;;;;;;;20.95;71.07;99382.84;107687;1257;60426;-38
2023/06/23 03:27:07;;;;;;;21.00;18.90;;;;;;;20.98;71.09;99379.23;107678;1254;59789;-38
2023/06/23 03:29:38;;;;;;;20.80;18.80;;;;;;;20.97;71.13;99384.36;107524;1254;72546;-38
2023/06/23 03:32:06;;;;;;;20.40;17.20;;;;;;;20.93;71.33;99385.32;107714;1256;67551;-38
2023/06/23 03:34:49;;;;;;;20.90;17.90;;;;;;;20.96;71.52;99384.08;107503;1253;72702;-38
2023/06/23 03:37:16;;;;;;;20.80;18.70;;;;;;;21.03;71.53;99381.79;107597;1254;60300;-38
2023/06/23 03:39:44;;;;;;;21.30;19.10;;;;;;;21.04;71.80;99379.70;107480;1253;60326;-38
2023/06/23 03:42:12;;;;;;;21.60;19.50;;;;;;;21.07;71.95;99379.18;107383;1253;74439;-38
2023/06/23 03:44:41;;;;;;;20.60;18.50;;;;;;;21.10;72.05;99378.64;107299;1253;67743;-38
2023/06/23 03:47:14;;;;;;;18.80;16.70;;;;;;;21.16;71.84;99382.30;107689;1253;71450;-38
2023/06/23 03:49:44;;;;;;;24.20;19.90;;;;;;;21.23;71.95;99380.62;107509;1253;60265;-38
2023/06/23 03:52:13;;;;;;;22.00;19.70;;;;;;;21.28;72.16;99376.17;107647;1253;60498;-38
2023/06/23 03:54:40;;;;;;;22.80;19.80;;;;;;;21.32;72.12;99377.60;107526;1253;73814;-38
2023/06/23 03:57:10;;;;;;;20.60;18.60;;;;;;;21.37;72.30;99379.34;107535;1252;67729;-38
2023/06/23 03:59:38;;;;;;;19.50;17.60;;;;;;;21.43;72.16;99377.80;107650;1254;73114;-38
2023/06/23 04:02:05;;;;;;;19.80;17.50;;;;;;;21.50;72.18;99372.50;107502;1253;60512;-38
2023/06/23 04:04:34;;;;;;;20.10;18.10;;;;;;;21.58;72.35;99369.98;107660;1253;60498;-38
2023/06/23 04:07:02;;;;;;;21.00;18.90;;;;;;;21.66;72.31;99367.59;107547;1254;72555;-38
2023/06/23 04:09:29;;;;;;;20.60;18.40;;;;;;;21.73;72.22;99368.27;107668;1253;66613;-38
2023/06/23 04:11:57;;;;;;;20.60;17.20;;;;;;;21.79;72.08;99366.23;107374;1254;72660;-38
2023/06/23 04:14:24;;;;;;;18.80;15.90;;;;;;;21.87;71.50;99367.42;107496;1253;60429;-38
2023/06/23 04:16:52;;;;;;;18.80;16.10;;;;;;;21.94;70.72;99369.84;107671;1255;60477;-38
2023/06/23 04:19:21;;;;;;;18.30;15.40;;;;;;;22.01;70.84;99369.19;107313;1253;72621;-38
2023/06/23 04:21:49;;;;;;;17.20;15.50;;;;;;;22.05;70.31;99372.08;107679;1253;66449;-38
2023/06/23 04:24:16;;;;;;;20.30;16.10;;;;;;;22.06;69.81;99374.00;107651;1253;72685;-38
2023/06/23 04:26:44;;;;;;;17.20;15.50;;;;;;;22.08;69.54;99373.73;107483;1253;60515;-38
2023/06/23 04:29:12;;;;;;;16.10;14.40;;;;;;;22.16;68.95;99370.59;107488;1253;60427;-38
2023/06/23 04:31:40;;;;;;;15.60;14.00;;;;;;;22.26;68.93;99368.96;107660;1252;73841;-38
2023/06/23 04:34:08;;;;;;;16.20;14.60;;;;;;;22.35;68.59;99372.83;107479;1253;67909;-38
2023/06/23 04:36:40;;;;;;;17.30;15.10;;;;;;;22.39;68.78;99368.98;107648;1257;72698;-38
2023/06/23 04:39:12;;;;;;;17.40;14.70;;;;;;;22.45;68.42;99366.20;107667;1257;60435;-38
2023/06/23 04:41:40;;;;;;;19.70;14.20;;;;;;;22.52;68.04;99364.91;107657;1253;60035;-38
2023/06/23 04:44:08;;;;;;;15.60;14.10;;;;;;;22.62;67.85;99366.24;107419;1255;71995;-38
2023/06/23 04:46:37;;;;;;;18.00;14.10;;;;;;;22.76;67.60;99364.76;107432;1253;67565;-38
2023/06/23 04:49:10;;;;;;;16.30;14.60;;;;;;;22.86;67.13;99362.63;107683;1253;71392;-38
2023/06/23 04:51:43;;;;;;;15.60;14.10;;;;;;;22.94;67.16;99360.87;107507;1253;60389;-38
2023/06/23 04:54:17;;;;;;;15.90;14.20;;;;;;;23.02;66.87;99367.58;107647;1252;60399;-38
2023/06/23 04:56:48;;;;;;;15.00;13.30;;;;;;;23.10;65.53;99364.17;107470;1253;72556;-38
2023/06/23 04:59:19;;;;;;;13.20;11.90;;;;;;;23.17;65.41;99366.55;107639;1257;67604;-38
2023/06/23 05:01:47;;;;;;;14.50;11.80;;;;;;;23.27;64.92;99364.87;107504;1254;73071;-38
2023/06/23 05:04:15;;;;;;;13.70;12.40;;;;;;;23.43;64.81;99368.40;107315;1260;60566;-38
2023/06/23 05:06:43;;;;;;;14.90;12.30;;;;;;;23.54;64.12;99373.27;107522;1257;60523;-38
2023/06/23 05:09:11;;;;;;;13.20;11.20;;;;;;;23.62;63.27;99371.71;107681;1253;73852;-38
2023/06/23 05:11:39;;;;;;;13.60;12.20;;;;;;;23.70;62.09;99370.48;107546;1253;67440;-38
2023/06/23 05:14:06;;;;;;;12.70;11.50;;;;;;;23.77;61.49;99371.14;107674;1253;72688;-38
2023/06/23 05:16:34;;;;;;;14.20;12.80;;;;;;;23.83;61.76;99372.27;107634;1256;59650;-38
2023/06/23 05:19:01;;;;;;;13.20;11.90;;;;;;;23.89;61.60;99376.73;107694;1252;60295;-38
2023/06/23 05:21:29;;;;;;;13.00;11.70;;;;;;;23.95;61.50;99372.80;107440;1253;73878;-38
2023/06/23 05:23:57;;;;;;;11.90;10.60;;;;;;;24.01;61.87;99371.00;107472;1253;67914;-38
2023/06/23 05:26:25;;;;;;;11.90;10.80;;;;;;;24.11;61.65;99366.05;107472;1253;71403;-38
2023/06/23 05:28:53;;;;;;;12.20;11.00;;;;;;;24.24;61.20;99361.16;107310;1253;60291;-38
2023/06/23 05:31:21;;;;;;;12.60;11.30;;;;;;;24.32;59.66;99354.84;107474;1253;60294;-38
2023/06/23 05:33:49;;;;;;;12.60;11.40;;;;;;;24.40;59.92;99349.59;107647;1253;73880;-38
2023/06/23 05:36:17;;;;;;;13.70;11.90;;;;;;;24.45;60.22;99355.56;107512;1253;67883;-38
2023/06/23 05:38:44;;;;;;;12.60;11.40;;;;;;;24.52;59.96;99359.27;107482;1254;72684;-38
2023/06/23 05:41:12;;;;;;;13.00;11.70;;;;;;;24.58;59.74;99365.02;107471;1253;60523;-38
2023/06/23 05:43:40;;;;;;;13.40;12.10;;;;;;;24.64;59.44;99368.36;107650;1257;60107;-38
2023/06/23 05:46:11;;;;;;;13.30;12.10;;;;;;;24.71;60.06;99368.52;107656;1253;73897;-38
2023/06/23 05:48:44;;;;;;;12.10;11.00;;;;;;;24.80;60.23;99369.29;107623;1253;67938;-38
2023/06/23 05:51:14;;;;;;;12.60;11.40;;;;;;;24.90;57.86;99362.64;107684;1253;72929;-38
2023/06/23 05:53:42;;;;;;;14.60;11.60;;;;;;;24.98;57.35;99362.24;107659;1253;60492;-38
2023/06/23 05:56:16;;;;;;;15.10;12.20;;;;;;;25.04;57.13;99363.29;107633;1253;60499;-38
2023/06/23 05:58:47;;;;;;;12.70;11.50;;;;;;;25.10;57.06;99365.80;107653;1252;73673;-39
2023/06/23 06:01:19;;;;;;;13.60;12.10;;;;;;;25.17;56.55;99365.69;107616;1253;67983;-39
2023/06/23 06:04:03;;;;;;;12.90;11.60;;;;;;;25.24;57.61;99364.11;107574;1253;72721;-38
2023/06/23 06:06:31;;;;;;;13.40;12.20;;;;;;;25.33;57.12;99357.27;107636;1253;60329;-38
2023/06/23 06:08:59;;;;;;;15.00;12.40;;;;;;;25.37;56.95;99356.63;107658;1253;59248;-38
2023/06/23 06:11:26;;;;;;;15.30;12.60;;;;;;;25.38;56.19;99356.71;107503;1253;72022;-38
2023/06/23 06:13:54;;;;;;;13.80;12.20;;;;;;;25.39;56.40;99360.09;107672;1253;66429;-38
2023/06/23 06:16:21;;;;;;;15.00;12.30;;;;;;;25.38;55.93;99356.00;107301;1253;72690;-38
2023/06/23 06:18:49;;;;;;;14.20;12.80;;;;;;;25.38;55.90;99353.54;107453;1253;60416;-38
2023/06/23 06:21:17;;;;;;;13.50;12.20;;;;;;;25.39;56.03;99352.55;107626;1253;60320;-39
2023/06/23 06:23:45;;;;;;;13.70;12.40;;;;;;;25.42;56.14;99353.45;107322;1253;73878;-38
2023/06/23 06:26:13;;;;;;;14.10;12.60;;;;;;;25.46;56.33;99351.36;107652;1253;67550;-38
2023/06/23 06:28:41;;;;;;;13.90;12.50;;;;;;;25.52;56.08;99349.56;107554;1253;72658;-38
2023/06/23 06:31:09;;;;;;;15.30;11.90;;;;;;;25.59;55.00;99343.85;107490;1253;60307;-38
2023/06/23 06:33:38;;;;;;;13.50;12.20;;;;;;;25.61;55.34;99338.89;107471;1253;60336;-38
2023/06/23 06:36:07;;;;;;;14.40;13.00;;;;;;;25.69;55.49;99340.30;107504;1254;72430;-38
2023/06/23 06:38:35;;;;;;;13.80;12.40;;;;;;;25.76;55.99;99339.85;107556;1253;67887;-38
2023/06/23 06:41:05;;;;;;;13.30;12.10;;;;;;;25.83;55.87;99337.63;107584;1253;72645;-38
2023/06/23 06:43:34;;;;;;;14.10;12.60;;;;;;;25.90;55.18;99335.00;107695;1253;60555;-38
2023/06/23 06:46:02;;;;;;;14.10;12.60;;;;;;;25.96;55.06;99341.48;107547;1253;60312;-38
2023/06/23 06:48:30;;;;;;;13.90;11.90;;;;;;;26.03;54.61;99342.70;107722;1257;73932;-38
2023/06/23 06:51:01;;;;;;;13.10;11.90;;;;;;;26.08;54.58;99334.86;107484;1253;67691;-38
2023/06/23 06:53:29;;;;;;;13.90;12.40;;;;;;;26.12;54.69;99334.97;107516;1253;72694;-38
2023/06/23 06:55:57;;;;;;;13.90;12.60;;;;;;;26.17;54.64;99333.02;107421;1254;60411;-38
2023/06/23 06:58:25;;;;;;;13.10;11.80;;;;;;;26.20;55.61;99328.92;107527;1253;60421;-38
2023/06/23 07:00:53;;;;;;;13.90;12.50;;;;;;;26.27;54.43;99331.89;107504;1253;74302;-38
2023/06/23 07:03:20;;;;;;;13.40;12.10;;;;;;;26.31;54.32;99329.59;107653;1252;67030;-38
2023/06/23 07:05:49;;;;;;;12.60;11.30;;;;;;;26.38;53.98;99326.20;107524;1253;71466;-38
2023/06/23 07:08:16;;;;;;;13.60;12.20;;;;;;;26.44;54.18;99321.10;107630;1253;60932;-38
2023/06/23 07:10:44;;;;;;;14.20;12.70;;;;;;;26.50;53.95;99321.52;107520;1256;60761;-38
2023/06/23 07:13:11;;;;;;;13.60;12.30;;;;;;;26.58;54.21;99323.83;107675;1253;73929;-38
2023/06/23 07:15:39;;;;;;;13.10;11.90;;;;;;;26.65;53.20;99328.26;107640;1252;67877;-38
2023/06/23 07:18:07;;;;;;;13.60;12.30;;;;;;;26.71;52.33;99322.89;107633;1253;71461;-38
2023/06/23 07:20:35;;;;;;;13.50;12.10;;;;;;;26.77;52.75;99313.55;107511;1253;60434;-38
2023/06/23 07:23:03;;;;;;;12.60;11.40;;;;;;;26.83;52.37;99317.71;107574;1253;60279;-38
2023/06/23 07:25:30;;;;;;;13.10;11.70;;;;;;;26.92;52.14;99314.78;107530;1252;72629;-38
2023/06/23 07:27:58;;;;;;;15.80;11.80;;;;;;;26.97;51.01;99316.58;107386;1253;67905;-38
2023/06/23 07:30:25;;;;;;;12.20;10.90;;;;;;;27.00;51.49;99311.34;107563;1253;72719;-38
2023/06/23 07:32:54;;;;;;;12.30;11.20;;;;;;;27.04;51.77;99310.85;107430;1253;60145;-38
2023/06/23 07:35:22;;;;;;;12.10;11.00;;;;;;;27.09;50.86;99309.40;107574;1253;60397;-38
2023/06/23 07:37:49;;;;;;;12.50;10.90;;;;;;;27.14;50.22;99312.90;107552;1253;73879;-38
2023/06/23 07:40:17;;;;;;;12.70;11.30;;;;;;;27.18;50.09;99314.73;107591;1253;68029;-38
2023/06/23 07:42:44;;;;;;;12.80;11.50;;;;;;;27.23;50.41;99311.85;107481;1257;71454;-38
2023/06/23 07:45:12;;;;;;;11.70;10.60;;;;;;;27.29;50.12;99319.05;107626;1253;60374;-38
2023/06/23 07:47:40;;;;;;;13.10;11.50;;;;;;;27.35;49.56;99317.73;107666;1252;60203;-38
2023/06/23 07:50:08;;;;;;;12.30;11.10;;;;;;;27.41;49.56;99315.29;107489;1253;72683;-38
2023/06/23 07:52:35;;;;;;;12.30;10.20;;;;;;;27.47;48.37;99310.83;107687;1252;67605;-39
2023/06/23 07:55:04;;;;;;;12.80;10.60;;;;;;;27.52;47.89;99309.19;107627;1254;72709;-38
2023/06/23 07:57:31;;;;;;;13.90;11.20;;;;;;;27.58;48.18;99306.56;107630;1253;60537;-38
2023/06/23 07:59:59;;;;;;;11.40;10.30;;;;;;;27.66;48.31;99309.66;107517;1253;60486;-38
2023/06/23 08:02:27;;;;;;;12.20;10.90;;;;;;;27.73;48.27;99302.97;107617;1253;72604;-39
2023/06/23 08:04:55;;;;;;;11.60;10.50;;;;;;;27.83;47.59;99302.69;107559;1253;67553;-38
2023/06/23 08:07:22;;;;;;;11.00;9.80;;;;;;;27.90;47.51;99301.55;107378;1257;70757;-38
2023/06/23 08:09:50;;;;;;;11.50;10.20;;;;;;;27.97;46.48;99299.90;107570;1253;60430;-38
2023/06/23 08:12:18;;;;;;;16.90;9.60;;;;;;;28.02;45.29;99302.17;107487;1253;60358;-38
2023/06/23 08:14:45;;;;;;;10.70;9.60;;;;;;;28.08;44.95;99293.42;107487;1252;73841;-38
2023/06/23 08:17:13;;;;;;;9.90;8.20;;;;;;;28.15;44.71;99288.30;107523;1253;67945;-38
2023/06/23 08:19:43;;;;;;;9.70;8.80;;;;;;;28.23;43.40;99288.15;107670;1253;72719;-38
2023/06/23 08:22:11;;;;;;;9.40;8.50;;;;;;;28.29;44.01;99287.92;107507;1253;60994;-38
2023/06/23 08:24:38;;;;;;;9.50;8.60;;;;;;;28.34;43.89;99288.52;107655;1253;60557;-38
2023/06/23 08:27:06;;;;;;;9.50;8.40;;;;;;;28.40;43.36;99283.90;107668;1256;73836;-38
2023/06/23 08:29:37;;;;;;;9.40;8.50;;;;;;;28.45;42.53;99283.27;107485;1257;67936;-38
2023/06/23 08:32:05;;;;;;;13.20;8.90;;;;;;;28.52;42.69;99282.23;107602;1257;72709;-38
2023/06/23 08:34:33;;;;;;;9.10;8.30;;;;;;;28.59;43.25;99285.36;107680;1256;60317;-38
2023/06/23 08:37:01;;;;;;;9.50;8.50;;;;;;;28.67;43.58;99281.83;107527;1253;60316;-38
2023/06/23 08:39:28;;;;;;;9.80;8.80;;;;;;;28.72;42.53;99278.74;107480;1257;73546;-38
2023/06/23 08:41:58;;;;;;;9.50;8.50;;;;;;;28.77;43.33;99274.46;107616;1253;66373;-38
2023/06/23 08:44:26;;;;;;;9.60;8.20;;;;;;;28.84;42.49;99267.14;107439;1254;72701;-39
2023/06/23 08:46:58;;;;;;;9.10;8.30;;;;;;;28.92;43.32;99263.76;107513;1253;60525;-39
2023/06/23 08:49:34;;;;;;;11.10;8.00;;;;;;;29.04;43.03;99264.02;107513;1252;60502;-39
2023/06/23 08:52:03;;;;;;;7.90;7.20;;;;;;;29.12;42.16;99266.66;107608;1253;72582;-39
2023/06/23 08:54:30;;;;;;;8.70;7.90;;;;;;;29.20;42.19;99269.00;107546;1253;66658;-39
2023/06/23 08:56:58;;;;;;;8.70;7.80;;;;;;;29.24;40.98;99261.48;107463;1253;72676;-39
2023/06/23 08:59:25;;;;;;;8.00;6.60;;;;;;;29.26;41.25;99256.85;107462;1253;60586;-39
2023/06/23 09:01:54;;;;;;;8.80;6.90;;;;;;;29.31;40.65;99257.38;107465;1253;60377;-39
2023/06/23 09:04:22;;;;;;;8.20;7.30;;;;;;;29.38;40.81;99257.06;107572;1252;73886;-38
2023/06/23 09:06:50;;;;;;;8.50;7.10;;;;;;;29.44;41.08;99252.16;107618;1253;67590;-39
2023/06/23 09:09:21;;;;;;;7.80;7.10;;;;;;;29.51;40.83;99250.77;107578;1252;72699;-39
2023/06/23 09:11:48;;;;;;;10.10;7.40;;;;;;;29.58;40.82;99248.91;107598;1253;61183;-39
2023/06/23 09:14:16;;;;;;;7.90;7.20;;;;;;;29.62;40.99;99247.63;107593;1252;60467;-39
2023/06/23 09:16:44;;;;;;;10.90;7.50;;;;;;;29.65;40.81;99245.68;107397;1253;73947;-38
2023/06/23 09:19:12;;;;;;;7.90;7.10;;;;;;;29.69;40.23;99242.21;107664;1253;67878;-39
2023/06/23 09:21:40;;;;;;;6.90;6.30;;;;;;;29.74;39.75;99244.56;107489;1253;72775;-38
2023/06/23 09:24:08;;;;;;;7.90;7.10;;;;;;;29.81;39.55;99246.39;107582;1254;60617;-39
2023/06/23 09:26:50;;;;;;;7.40;6.80;;;;;;;29.86;40.00;99247.77;107611;1252;60423;-38
2023/06/23 09:29:24;;;;;;;7.90;7.10;;;;;;;29.91;39.39;99241.28;107519;1254;73827;-38
2023/06/23 09:31:52;;;;;;;9.20;7.90;;;;;;;29.94;40.40;99245.38;107587;1253;66747;-39
2023/06/23 09:34:27;;;;;;;8.20;7.30;;;;;;;29.97;40.05;99246.23;107587;1253;72707;-38
2023/06/23 09:37:08;;;;;;;8.30;7.50;;;;;;;29.98;40.67;99247.20;107604;1253;60438;-38
2023/06/23 09:39:40;;;;;;;8.00;7.30;;;;;;;29.98;40.28;99243.95;107510;1253;60460;-38
2023/06/23 09:42:11;;;;;;;9.60;8.70;;;;;;;29.98;40.58;99236.98;107472;1253;72306;-38
2023/06/23 09:44:40;;;;;;;9.50;8.60;;;;;;;30.03;40.70;99231.14;107598;1253;67524;-38
2023/06/23 09:47:08;;;;;;;8.70;7.90;;;;;;;30.08;40.94;99225.23;107671;1257;72040;-38
2023/06/23 09:49:40;;;;;;;10.20;7.80;;;;;;;30.13;40.89;99223.70;107543;1251;60238;-38
2023/06/23 09:52:09;;;;;;;9.20;8.40;;;;;;;30.22;41.31;99221.27;107728;1253;60605;-38
2023/06/23 09:54:37;;;;;;;9.00;8.20;;;;;;;30.31;41.33;99222.45;107629;1255;73903;-38
2023/06/23 09:57:07;;;;;;;9.50;8.70;;;;;;;30.35;40.79;99221.16;107685;1256;66281;-39
2023/06/23 09:59:39;;;;;;;11.40;8.70;;;;;;;30.42;41.01;99220.04;107634;1253;71391;-38
2023/06/23 10:02:07;;;;;;;9.80;8.80;;;;;;;30.40;40.71;99217.64;107678;1253;60254;-38
2023/06/23 10:04:35;;;;;;;9.50;8.50;;;;;;;30.35;41.27;99222.05;107675;1251;60264;-38
2023/06/23 10:07:20;;;;;;;9.70;8.70;;;;;;;30.30;41.83;99219.51;107614;1252;73853;-38
2023/06/23 10:09:50;;;;;;;9.50;8.60;;;;;;;30.31;42.74;99218.80;107612;1253;67566;-38
2023/06/23 10:12:21;;;;;;;10.20;8.40;;;;;;;30.32;41.34;99223.02;107605;1253;71836;-38
2023/06/23 10:14:50;;;;;;;11.60;9.10;;;;;;;30.29;41.80;99221.68;107673;1251;60408;-39
2023/06/23 10:17:17;;;;;;;9.50;8.60;;;;;;;30.32;42.04;99216.98;107712;1253;60563;-39
2023/06/23 10:19:46;;;;;;;10.30;9.20;;;;;;;30.44;41.36;99220.63;107731;1251;73942;-38
2023/06/23 10:22:15;;;;;;;10.10;9.20;;;;;;;30.48;40.89;99219.00;107745;1253;66839;-38
2023/06/23 10:24:45;;;;;;;10.10;9.20;;;;;;;30.44;41.03;99219.50;107740;1253;72693;-38
2023/06/23 10:27:18;;;;;;;10.40;9.30;;;;;;;30.39;41.22;99218.95;107622;1252;60470;-38
2023/06/23 10:29:48;;;;;;;16.60;9.20;;;;;;;30.43;41.48;99214.11;107701;1251;60290;-38
2023/06/23 10:32:15;;;;;;;9.80;8.90;;;;;;;30.56;41.64;99213.50;107751;1251;73899;-38
2023/06/23 10:34:43;;;;;;;9.60;8.70;;;;;;;30.74;41.64;99210.15;107719;1251;66824;-38
2023/06/23 10:37:11;;;;;;;10.30;9.30;;;;;;;30.93;41.15;99216.30;107481;1253;72676;-38
2023/06/23 10:39:39;;;;;;;11.30;9.70;;;;;;;31.06;40.06;99216.73;107734;1252;60412;-39
2023/06/23 10:42:07;;;;;;;10.80;9.80;;;;;;;31.10;40.14;99216.00;107557;1251;60320;-38
2023/06/23 10:44:34;;;;;;;11.10;10.00;;;;;;;31.17;40.60;99224.37;107745;1251;73847;-38
2023/06/23 10:47:02;;;;;;;11.50;10.40;;;;;;;31.29;40.54;99218.15;107643;1253;66293;-38
2023/06/23 10:49:30;;;;;;;11.00;9.90;;;;;;;31.47;40.15;99221.92;107506;1254;71413;-38
2023/06/23 10:51:58;;;;;;;11.00;9.90;;;;;;;31.60;39.76;99223.10;107562;1252;60928;-38
2023/06/23 10:54:27;;;;;;;10.50;9.60;;;;;;;31.71;38.95;99227.50;107672;1253;60222;-39
2023/06/23 10:56:55;;;;;;;11.70;9.30;;;;;;;31.78;38.31;99217.57;107772;1256;72639;-38
2023/06/23 10:59:29;;;;;;;13.00;9.50;;;;;;;31.87;38.57;99212.75;107654;1253;67389;-38
2023/06/23 11:02:00;;;;;;;11.10;9.70;;;;;;;31.91;38.11;99217.70;107691;1253;72675;-38
2023/06/23 11:04:32;;;;;;;10.80;9.70;;;;;;;31.96;38.49;99217.44;107720;1252;60424;-38
2023/06/23 11:07:12;;;;;;;10.10;9.10;;;;;;;32.04;37.68;99213.77;107717;1253;60388;-39
2023/06/23 11:10:06;;;;;;;9.70;8.90;;;;;;;32.08;37.50;99209.13;107733;1251;73857;-39
2023/06/23 11:12:42;;;;;;;10.00;8.80;;;;;;;32.13;37.69;99212.10;107578;1252;156253;-39
2023/06/23 11:16:04;;;;;;;9.70;8.60;;;;;;;32.26;36.87;99207.92;104314;1289;600127;-39
2023/06/23 11:18:32;;;;;;;12.20;8.90;;;;;;;32.27;36.36;99200.16;106704;1265;59694;-39
2023/06/23 11:21:03;;;;;;;12.00;9.00;;;;;;;32.10;36.63;99201.02;106642;1266;59181;-39
2023/06/23 11:23:31;;;;;;;9.70;8.70;;;;;;;32.01;36.86;99201.89;106766;1266;72302;-39
2023/06/23 11:25:58;;;;;;;11.10;8.70;;;;;;;31.91;37.18;99200.80;106699;1264;66821;-38